createdAt,value
2019-05-29T00:02:43.980Z,12.70
2019-05-29T00:07:48.312Z,12.80
2019-05-29T00:12:52.670Z,12.70
2019-05-29T00:17:56.981Z,12.50
2019-05-29T00:23:01.702Z,12.40
2019-05-29T00:28:06.503Z,12.40
2019-05-29T00:33:11.907Z,12.30
2019-05-29T00:38:16.690Z,12.30
2019-05-29T00:43:21.107Z,12.20
2019-05-29T00:48:25.423Z,12.10
2019-05-29T00:53:29.971Z,11.90
2019-05-29T00:58:34.281Z,11.90
2019-05-29T01:03:38.582Z,11.80
2019-05-29T01:08:42.885Z,11.70
2019-05-29T01:13:47.251Z,11.80
2019-05-29T01:18:51.575Z,11.90
2019-05-29T01:23:55.906Z,11.80
2019-05-29T01:29:00.242Z,11.80
2019-05-29T01:34:04.649Z,11.80
2019-05-29T01:39:08.983Z,11.70
2019-05-29T01:44:13.308Z,11.70
2019-05-29T01:49:17.907Z,11.70
2019-05-29T01:54:22.329Z,11.60
2019-05-29T01:59:26.642Z,11.40
2019-05-29T02:04:30.979Z,11.40
2019-05-29T02:09:35.287Z,11.40
2019-05-29T02:14:39.610Z,11.40
2019-05-29T02:19:43.918Z,11.30
2019-05-29T02:24:48.507Z,11.30
2019-05-29T02:29:52.822Z,11.20
2019-05-29T02:34:57.117Z,11.10
2019-05-29T02:40:01.459Z,11.00
2019-05-29T02:45:06.649Z,11.00
2019-05-29T02:50:10.948Z,10.80
2019-05-29T02:55:16.331Z,10.80
2019-05-29T03:00:25.706Z,10.70
2019-05-29T03:05:30.064Z,10.80
2019-05-29T03:10:34.817Z,10.80
2019-05-29T03:15:39.183Z,10.80
2019-05-29T03:20:43.556Z,10.80
2019-05-29T03:25:47.994Z,10.70
2019-05-29T03:30:52.885Z,10.80
2019-05-29T03:35:57.253Z,10.80
2019-05-29T03:41:01.699Z,10.60
2019-05-29T03:46:06.241Z,10.60
2019-05-29T03:51:10.593Z,10.50
2019-05-29T03:56:14.893Z,10.50
2019-05-29T04:01:19.244Z,10.60
2019-05-29T04:06:23.840Z,10.60
2019-05-29T04:11:29.284Z,10.50
2019-05-29T04:16:52.707Z,10.70
2019-05-29T04:21:44.216Z,10.70
2019-05-29T04:26:50.896Z,10.80
2019-05-29T04:31:55.237Z,10.90
2019-05-29T04:36:59.576Z,10.90
2019-05-29T04:42:04.072Z,10.90
2019-05-29T04:47:11.579Z,10.90
2019-05-29T04:52:14.519Z,11.00
2019-05-29T04:57:18.857Z,11.00
2019-05-29T05:02:25.938Z,11.10
2019-05-29T05:07:35.355Z,11.30
2019-05-29T05:12:41.099Z,11.30
2019-05-29T05:17:45.464Z,11.40
2019-05-29T05:22:49.808Z,11.60
2019-05-29T05:27:54.140Z,11.70
2019-05-29T05:32:58.475Z,11.70
2019-05-29T05:38:02.939Z,11.90
2019-05-29T05:43:22.857Z,12.00
2019-05-29T05:48:13.795Z,12.20
2019-05-29T05:53:18.340Z,12.40
2019-05-29T05:58:22.870Z,12.50
2019-05-29T06:03:27.416Z,12.70
2019-05-29T06:08:32.088Z,12.90
2019-05-29T06:13:36.689Z,13.00
2019-05-29T06:18:41.203Z,13.20
2019-05-29T06:23:45.640Z,13.40
2019-05-29T06:28:50.041Z,13.50
2019-05-29T06:33:54.337Z,13.70
2019-05-29T06:38:58.669Z,13.90
2019-05-29T06:44:03.059Z,14.00
2019-05-29T06:49:07.624Z,14.10
2019-05-29T06:54:12.202Z,14.20
2019-05-29T06:59:16.839Z,14.30
2019-05-29T07:04:21.377Z,14.40
2019-05-29T07:09:25.907Z,14.50
2019-05-29T07:14:30.347Z,14.60
2019-05-29T07:19:48.799Z,14.80
2019-05-29T07:24:41.257Z,15.00
2019-05-29T07:29:47.081Z,15.20
2019-05-29T07:35:03.375Z,15.30
2019-05-29T07:39:57.883Z,15.30
2019-05-29T07:45:02.229Z,15.40
2019-05-29T07:50:07.252Z,15.50
2019-05-29T07:55:12.934Z,15.60
2019-05-29T08:00:17.666Z,15.60
2019-05-29T08:05:22.004Z,15.70
2019-05-29T08:10:26.404Z,15.90
2019-05-29T08:15:30.771Z,16.00
2019-05-29T08:20:35.520Z,15.90
2019-05-29T08:25:41.322Z,16.00
2019-05-29T08:30:51.729Z,16.10
2019-05-29T08:35:59.462Z,16.20
2019-05-29T08:40:57.957Z,16.30
2019-05-29T08:46:02.365Z,16.30
2019-05-29T08:51:06.696Z,16.30
2019-05-29T08:56:11.006Z,16.50
2019-05-29T09:01:15.451Z,16.80
2019-05-29T09:06:19.790Z,17.00
2019-05-29T09:11:24.265Z,17.20
2019-05-29T09:16:28.603Z,17.30
2019-05-29T09:21:33.028Z,17.50
2019-05-29T09:26:37.411Z,17.50
2019-05-29T09:31:41.804Z,17.50
2019-05-29T09:36:48.235Z,17.60
2019-05-29T09:41:52.760Z,17.60
2019-05-29T09:46:57.112Z,17.80
2019-05-29T09:52:02.039Z,18.00
2019-05-29T09:57:06.416Z,18.20
2019-05-29T10:02:10.652Z,18.30
2019-05-29T10:07:14.984Z,18.50
2019-05-29T10:12:19.409Z,18.70
2019-05-29T10:17:23.753Z,18.80
2019-05-29T10:22:28.161Z,19.00
2019-05-29T10:27:32.405Z,19.20
2019-05-29T10:32:36.728Z,19.40
2019-05-29T10:37:42.564Z,19.40
2019-05-29T10:42:47.202Z,19.40
2019-05-29T10:47:52.367Z,19.30
2019-05-29T10:52:57.397Z,19.50
2019-05-29T10:58:01.737Z,19.90
2019-05-29T11:03:06.079Z,20.30
2019-05-29T11:08:10.417Z,20.60
2019-05-29T11:13:14.816Z,20.80
2019-05-29T11:18:19.199Z,20.80
2019-05-29T11:23:23.566Z,21.10
2019-05-29T11:28:27.982Z,21.30
2019-05-29T11:33:32.392Z,21.60
2019-05-29T11:38:36.740Z,22.00
2019-05-29T11:43:41.231Z,22.10
2019-05-29T11:48:45.550Z,22.10
2019-05-29T11:53:51.337Z,21.90
2019-05-29T11:58:56.955Z,22.10
2019-05-29T12:04:24.242Z,22.20
2019-05-29T12:09:09.600Z,22.00
2019-05-29T12:14:14.009Z,22.20
2019-05-29T12:19:18.431Z,22.40
2019-05-29T12:24:22.972Z,22.70
2019-05-29T12:29:27.815Z,22.50
2019-05-29T12:34:32.365Z,22.30
2019-05-29T12:39:36.700Z,22.50
2019-05-29T12:44:41.008Z,22.90
2019-05-29T12:49:45.563Z,23.30
2019-05-29T12:54:50.100Z,23.70
2019-05-29T12:59:54.393Z,24.00
2019-05-29T13:05:12.553Z,24.10
2019-05-29T13:10:06.289Z,24.10
2019-05-29T13:15:11.326Z,24.00
2019-05-29T13:20:21.688Z,24.00
2019-05-29T13:25:22.449Z,24.00
2019-05-29T13:30:27.310Z,24.00
2019-05-29T13:35:31.685Z,24.20
2019-05-29T13:40:35.978Z,24.40
2019-05-29T13:45:40.598Z,24.60
2019-05-29T13:50:48.476Z,24.60
2019-05-29T13:55:51.528Z,24.60
2019-05-29T14:00:55.888Z,24.50
2019-05-29T14:06:00.857Z,24.60
2019-05-29T14:11:05.515Z,24.90
2019-05-29T14:16:09.888Z,25.10
2019-05-29T14:21:14.241Z,25.20
2019-05-29T14:26:18.781Z,25.10
2019-05-29T14:31:23.100Z,25.10
2019-05-29T14:36:27.428Z,25.20
2019-05-29T14:41:31.806Z,25.20
2019-05-29T14:46:36.124Z,25.10
2019-05-29T14:51:40.540Z,24.90
2019-05-29T14:56:45.159Z,25.00
2019-05-29T15:01:51.363Z,24.90
2019-05-29T15:06:55.596Z,25.00
2019-05-29T15:12:00.011Z,24.90
2019-05-29T15:17:05.061Z,24.50
2019-05-29T15:22:09.594Z,24.30
2019-05-29T15:27:14.155Z,24.30
2019-05-29T15:32:18.675Z,24.50
2019-05-29T15:37:23.009Z,24.20
2019-05-29T15:42:27.328Z,24.20
2019-05-29T15:47:31.894Z,24.30
2019-05-29T15:52:41.650Z,24.40
2019-05-29T15:57:46.065Z,24.50
2019-05-29T16:02:50.394Z,24.60
2019-05-29T16:07:54.708Z,24.80
2019-05-29T16:12:59.036Z,24.60
2019-05-29T16:18:03.521Z,24.60
2019-05-29T16:23:08.434Z,24.60
2019-05-29T16:28:13.093Z,24.50
2019-05-29T16:33:17.603Z,24.20
2019-05-29T16:38:21.989Z,23.70
2019-05-29T16:43:26.318Z,23.70
2019-05-29T16:48:30.876Z,23.60
2019-05-29T16:53:35.245Z,23.70
2019-05-29T16:58:39.791Z,23.70
2019-05-29T17:03:44.157Z,23.70
2019-05-29T17:08:48.530Z,23.70
2019-05-29T17:13:52.867Z,23.60
2019-05-29T17:18:57.501Z,23.50
2019-05-29T17:24:01.791Z,23.40
2019-05-29T17:29:06.143Z,23.30
2019-05-29T17:34:10.475Z,23.30
2019-05-29T17:39:15.202Z,23.20
2019-05-29T17:44:19.721Z,23.00
2019-05-29T17:49:33.025Z,22.90
2019-05-29T17:54:31.431Z,22.80
2019-05-29T17:59:35.904Z,22.70
2019-05-29T18:04:40.342Z,22.60
2019-05-29T18:09:44.800Z,22.50
2019-05-29T18:14:49.237Z,22.40
2019-05-29T18:19:53.620Z,22.30
2019-05-29T18:24:58.010Z,22.20
2019-05-29T18:30:02.575Z,22.10
2019-05-29T18:35:07.524Z,21.90
2019-05-29T18:40:12.980Z,21.80
2019-05-29T18:45:20.930Z,21.70
2019-05-29T18:50:23.991Z,21.50
2019-05-29T18:55:28.998Z,21.30
2019-05-29T19:00:33.764Z,21.10
2019-05-29T19:05:38.163Z,20.90
2019-05-29T19:10:42.507Z,20.70
2019-05-29T19:15:46.913Z,20.40
2019-05-29T19:20:51.351Z,20.40
2019-05-29T19:25:55.693Z,20.30
2019-05-29T19:31:00.130Z,20.10
2019-05-29T19:36:04.686Z,19.90
2019-05-29T19:41:09.027Z,19.80
2019-05-29T19:46:13.360Z,19.70
2019-05-29T19:51:18.312Z,19.50
2019-05-29T19:56:22.611Z,19.30
2019-05-29T20:01:32.817Z,19.10
2019-05-29T20:06:33.231Z,19.00
2019-05-29T20:11:37.922Z,18.90
2019-05-29T20:16:42.432Z,18.80
2019-05-29T20:21:47.019Z,18.70
2019-05-29T20:26:51.365Z,18.60
2019-05-29T20:31:55.718Z,18.40
2019-05-29T20:37:03.075Z,18.30
2019-05-29T20:42:07.303Z,18.30
2019-05-29T20:47:11.994Z,18.20
2019-05-29T20:52:16.623Z,18.00
2019-05-29T20:57:20.958Z,18.00
2019-05-29T21:02:25.343Z,17.80
2019-05-29T21:07:29.667Z,17.70
2019-05-29T21:12:35.120Z,17.70
2019-05-29T21:17:40.027Z,17.60
2019-05-29T21:22:44.983Z,17.50
2019-05-29T21:27:49.851Z,17.40
2019-05-29T21:32:54.243Z,17.40
2019-05-29T21:37:58.646Z,17.50
2019-05-29T21:43:03.076Z,17.50
2019-05-29T21:48:07.689Z,17.50
2019-05-29T21:53:12.587Z,17.50
2019-05-29T21:58:17.160Z,17.50
2019-05-29T22:03:21.674Z,17.40
2019-05-29T22:08:26.208Z,17.40
2019-05-29T22:13:30.688Z,17.40
2019-05-29T22:18:35.058Z,17.40
2019-05-29T22:23:39.386Z,17.20
2019-05-29T22:28:43.695Z,17.10
2019-05-29T22:33:48.024Z,17.00
2019-05-29T22:38:53.407Z,17.00
2019-05-29T22:43:57.915Z,16.90
2019-05-29T22:49:02.331Z,16.70
2019-05-29T22:54:06.865Z,16.60
2019-05-29T22:59:11.177Z,16.50
2019-05-29T23:04:15.521Z,16.40
2019-05-29T23:09:19.841Z,16.30
2019-05-29T23:14:24.200Z,16.20
2019-05-29T23:19:28.557Z,16.20
2019-05-29T23:24:32.885Z,16.10
2019-05-29T23:29:48.394Z,16.10
2019-05-29T23:34:43.227Z,16.10
2019-05-29T23:39:47.566Z,16.10
2019-05-29T23:44:52.743Z,15.90
2019-05-29T23:49:58.030Z,16.10
2019-05-29T23:55:02.560Z,16.10
